sensor_id;sensor_type;location;lat;lon;timestamp;pressure;altitude;pressure_sealevel;temperature;humidity
51468;BME280;37545;45.302;-122.946;2023-07-31T00:00:18;101170.22;;;32.40;22.81
51468;BME280;37545;45.302;-122.946;2023-07-31T00:02:56;101167.38;;;32.43;22.81
51468;BME280;37545;45.302;-122.946;2023-07-31T00:05:24;101160.81;;;32.48;22.91
51468;BME280;37545;45.302;-122.946;2023-07-31T00:07:53;101158.00;;;32.51;22.35
51468;BME280;37545;45.302;-122.946;2023-07-31T00:10:22;101163.38;;;32.50;23.39
51468;BME280;37545;45.302;-122.946;2023-07-31T00:12:52;101156.06;;;32.38;22.84
51468;BME280;37545;45.302;-122.946;2023-07-31T00:15:24;101151.22;;;32.28;22.88
51468;BME280;37545;45.302;-122.946;2023-07-31T00:17:54;101154.03;;;32.25;23.19
51468;BME280;37545;45.302;-122.946;2023-07-31T00:20:23;101163.03;;;32.24;22.78
51468;BME280;37545;45.302;-122.946;2023-07-31T00:22:52;101157.16;;;32.18;23.25
51468;BME280;37545;45.302;-122.946;2023-07-31T00:25:20;101146.69;;;32.13;22.94
51468;BME280;37545;45.302;-122.946;2023-07-31T00:27:49;101151.88;;;32.16;22.70
51468;BME280;37545;45.302;-122.946;2023-07-31T00:30:18;101150.75;;;32.20;22.54
51468;BME280;37545;45.302;-122.946;2023-07-31T00:32:46;101146.19;;;32.22;22.80
51468;BME280;37545;45.302;-122.946;2023-07-31T00:35:24;101142.56;;;32.23;22.95
51468;BME280;37545;45.302;-122.946;2023-07-31T00:37:52;101147.41;;;32.17;23.43
51468;BME280;37545;45.302;-122.946;2023-07-31T00:40:21;101144.97;;;32.12;24.37
51468;BME280;37545;45.302;-122.946;2023-07-31T00:42:50;101149.69;;;32.07;23.98
51468;BME280;37545;45.302;-122.946;2023-07-31T00:45:18;101143.59;;;32.05;23.44
51468;BME280;37545;45.302;-122.946;2023-07-31T00:47:49;101148.94;;;32.05;23.58
51468;BME280;37545;45.302;-122.946;2023-07-31T00:50:20;101147.63;;;31.96;23.79
51468;BME280;37545;45.302;-122.946;2023-07-31T00:52:48;101150.75;;;31.87;24.87
51468;BME280;37545;45.302;-122.946;2023-07-31T00:55:34;101150.03;;;31.83;23.57
51468;BME280;37545;45.302;-122.946;2023-07-31T00:58:03;101146.59;;;31.81;23.29
51468;BME280;37545;45.302;-122.946;2023-07-31T01:00:32;101142.50;;;31.74;24.58
51468;BME280;37545;45.302;-122.946;2023-07-31T01:03:01;101143.97;;;31.64;24.68
51468;BME280;37545;45.302;-122.946;2023-07-31T01:05:39;101138.19;;;31.54;23.95
51468;BME280;37545;45.302;-122.946;2023-07-31T01:08:18;101144.91;;;31.45;24.20
51468;BME280;37545;45.302;-122.946;2023-07-31T01:10:54;101138.25;;;31.35;24.52
51468;BME280;37545;45.302;-122.946;2023-07-31T01:13:24;101135.28;;;31.24;24.81
51468;BME280;37545;45.302;-122.946;2023-07-31T01:15:53;101141.88;;;31.17;24.67
51468;BME280;37545;45.302;-122.946;2023-07-31T01:18:22;101135.19;;;31.08;25.25
51468;BME280;37545;45.302;-122.946;2023-07-31T01:20:57;101132.91;;;31.00;25.75
51468;BME280;37545;45.302;-122.946;2023-07-31T01:24:08;101130.06;;;30.86;25.83
51468;BME280;37545;45.302;-122.946;2023-07-31T01:26:49;101133.38;;;30.72;26.13
51468;BME280;37545;45.302;-122.946;2023-07-31T01:29:25;101137.38;;;30.63;25.76
51468;BME280;37545;45.302;-122.946;2023-07-31T01:31:57;101136.50;;;30.44;26.05
51468;BME280;37545;45.302;-122.946;2023-07-31T01:34:28;101135.31;;;30.12;26.80
51468;BME280;37545;45.302;-122.946;2023-07-31T01:36:57;101132.19;;;29.83;27.29
51468;BME280;37545;45.302;-122.946;2023-07-31T01:39:26;101134.66;;;29.67;27.49
51468;BME280;37545;45.302;-122.946;2023-07-31T01:41:59;101131.97;;;29.67;27.42
51468;BME280;37545;45.302;-122.946;2023-07-31T01:44:29;101130.22;;;29.66;27.83
51468;BME280;37545;45.302;-122.946;2023-07-31T01:46:59;101137.31;;;29.67;27.09
51468;BME280;37545;45.302;-122.946;2023-07-31T01:49:28;101138.31;;;29.64;27.72
51468;BME280;37545;45.302;-122.946;2023-07-31T01:51:57;101138.44;;;29.61;28.02
51468;BME280;37545;45.302;-122.946;2023-07-31T01:54:25;101136.72;;;29.60;27.73
51468;BME280;37545;45.302;-122.946;2023-07-31T01:56:57;101139.59;;;29.56;27.74
51468;BME280;37545;45.302;-122.946;2023-07-31T01:59:26;101147.72;;;29.53;28.54
51468;BME280;37545;45.302;-122.946;2023-07-31T02:01:55;101139.13;;;29.46;28.15
51468;BME280;37545;45.302;-122.946;2023-07-31T02:04:24;101140.25;;;29.40;28.57
51468;BME280;37545;45.302;-122.946;2023-07-31T02:06:53;101143.16;;;29.34;28.13
51468;BME280;37545;45.302;-122.946;2023-07-31T02:09:22;101143.50;;;29.27;29.76
51468;BME280;37545;45.302;-122.946;2023-07-31T02:11:51;101141.59;;;29.08;29.28
51468;BME280;37545;45.302;-122.946;2023-07-31T02:14:21;101146.22;;;29.03;29.73
51468;BME280;37545;45.302;-122.946;2023-07-31T02:16:50;101145.47;;;28.99;29.19
51468;BME280;37545;45.302;-122.946;2023-07-31T02:19:18;101149.94;;;28.99;29.20
51468;BME280;37545;45.302;-122.946;2023-07-31T02:21:47;101150.13;;;28.94;28.41
51468;BME280;37545;45.302;-122.946;2023-07-31T02:24:15;101150.47;;;28.87;28.74
51468;BME280;37545;45.302;-122.946;2023-07-31T02:26:44;101153.38;;;28.80;28.72
51468;BME280;37545;45.302;-122.946;2023-07-31T02:29:13;101155.34;;;28.75;29.21
51468;BME280;37545;45.302;-122.946;2023-07-31T02:31:48;101159.38;;;28.64;29.40
51468;BME280;37545;45.302;-122.946;2023-07-31T02:34:16;101162.44;;;28.53;29.44
51468;BME280;37545;45.302;-122.946;2023-07-31T02:36:45;101169.00;;;28.42;29.35
51468;BME280;37545;45.302;-122.946;2023-07-31T02:39:14;101170.47;;;28.28;29.65
51468;BME280;37545;45.302;-122.946;2023-07-31T02:41:45;101171.97;;;28.11;30.28
51468;BME280;37545;45.302;-122.946;2023-07-31T02:44:14;101182.25;;;27.97;30.78
51468;BME280;37545;45.302;-122.946;2023-07-31T02:46:42;101180.03;;;27.85;31.35
51468;BME280;37545;45.302;-122.946;2023-07-31T02:49:12;101182.28;;;27.70;31.30
51468;BME280;37545;45.302;-122.946;2023-07-31T02:51:42;101180.00;;;27.60;31.77
51468;BME280;37545;45.302;-122.946;2023-07-31T02:54:14;101184.75;;;27.50;31.95
51468;BME280;37545;45.302;-122.946;2023-07-31T02:56:43;101193.16;;;27.38;32.16
51468;BME280;37545;45.302;-122.946;2023-07-31T02:59:12;101199.78;;;27.24;32.38
51468;BME280;37545;45.302;-122.946;2023-07-31T03:01:46;101196.69;;;27.10;32.77
51468;BME280;37545;45.302;-122.946;2023-07-31T03:04:19;101196.88;;;27.04;33.15
51468;BME280;37545;45.302;-122.946;2023-07-31T03:06:48;101190.03;;;26.97;32.93
51468;BME280;37545;45.302;-122.946;2023-07-31T03:09:19;101193.06;;;26.84;33.55
51468;BME280;37545;45.302;-122.946;2023-07-31T03:11:48;101188.19;;;26.70;33.33
51468;BME280;37545;45.302;-122.946;2023-07-31T03:14:17;101198.31;;;26.58;34.10
51468;BME280;37545;45.302;-122.946;2023-07-31T03:16:45;101190.66;;;26.45;34.31
51468;BME280;37545;45.302;-122.946;2023-07-31T03:19:14;101191.97;;;26.32;34.34
51468;BME280;37545;45.302;-122.946;2023-07-31T03:21:51;101195.78;;;26.22;34.44
51468;BME280;37545;45.302;-122.946;2023-07-31T03:24:28;101207.66;;;26.08;34.83
51468;BME280;37545;45.302;-122.946;2023-07-31T03:27:04;101205.44;;;25.93;34.64
51468;BME280;37545;45.302;-122.946;2023-07-31T03:29:34;101205.81;;;25.78;34.79
51468;BME280;37545;45.302;-122.946;2023-07-31T03:32:03;101210.44;;;25.69;35.34
51468;BME280;37545;45.302;-122.946;2023-07-31T03:34:31;101218.56;;;25.63;35.05
51468;BME280;37545;45.302;-122.946;2023-07-31T03:37:02;101204.66;;;25.54;35.52
51468;BME280;37545;45.302;-122.946;2023-07-31T03:39:33;101206.91;;;25.35;35.85
51468;BME280;37545;45.302;-122.946;2023-07-31T03:42:02;101210.63;;;25.27;35.99
51468;BME280;37545;45.302;-122.946;2023-07-31T03:44:31;101212.69;;;25.13;36.36
51468;BME280;37545;45.302;-122.946;2023-07-31T03:46:59;101220.78;;;25.07;36.62
51468;BME280;37545;45.302;-122.946;2023-07-31T03:49:28;101224.50;;;24.98;36.32
51468;BME280;37545;45.302;-122.946;2023-07-31T03:51:59;101225.47;;;24.94;36.85
51468;BME280;37545;45.302;-122.946;2023-07-31T03:54:29;101221.19;;;24.90;36.76
51468;BME280;37545;45.302;-122.946;2023-07-31T03:56:58;101230.09;;;24.84;36.74
51468;BME280;37545;45.302;-122.946;2023-07-31T03:59:27;101223.13;;;24.80;36.93
51468;BME280;37545;45.302;-122.946;2023-07-31T04:01:56;101235.59;;;24.77;36.88
51468;BME280;37545;45.302;-122.946;2023-07-31T04:04:24;101231.22;;;24.74;37.19
51468;BME280;37545;45.302;-122.946;2023-07-31T04:06:59;101240.13;;;24.70;37.28
51468;BME280;37545;45.302;-122.946;2023-07-31T04:09:36;101237.59;;;24.64;37.35
51468;BME280;37545;45.302;-122.946;2023-07-31T04:12:05;101233.28;;;24.60;37.69
51468;BME280;37545;45.302;-122.946;2023-07-31T04:14:34;101234.28;;;24.54;37.75
51468;BME280;37545;45.302;-122.946;2023-07-31T04:17:02;101236.16;;;24.49;37.57
51468;BME280;37545;45.302;-122.946;2023-07-31T04:19:31;101245.03;;;24.45;37.84
51468;BME280;37545;45.302;-122.946;2023-07-31T04:22:00;101246.91;;;24.40;38.10
51468;BME280;37545;45.302;-122.946;2023-07-31T04:24:28;101244.41;;;24.32;37.62
51468;BME280;37545;45.302;-122.946;2023-07-31T04:26:58;101251.63;;;24.24;38.15
51468;BME280;37545;45.302;-122.946;2023-07-31T04:29:27;101237.66;;;24.16;38.44
51468;BME280;37545;45.302;-122.946;2023-07-31T04:31:55;101243.97;;;24.10;38.13
51468;BME280;37545;45.302;-122.946;2023-07-31T04:34:24;101244.06;;;24.02;38.06
51468;BME280;37545;45.302;-122.946;2023-07-31T04:36:54;101244.16;;;23.98;38.26
51468;BME280;37545;45.302;-122.946;2023-07-31T04:39:22;101243.38;;;23.94;38.99
51468;BME280;37545;45.302;-122.946;2023-07-31T04:41:51;101243.44;;;23.90;38.54
51468;BME280;37545;45.302;-122.946;2023-07-31T04:44:21;101243.56;;;23.82;39.11
51468;BME280;37545;45.302;-122.946;2023-07-31T04:46:52;101242.78;;;23.77;39.22
51468;BME280;37545;45.302;-122.946;2023-07-31T04:49:21;101242.81;;;23.72;39.32
51468;BME280;37545;45.302;-122.946;2023-07-31T04:51:50;101249.13;;;23.65;39.12
51468;BME280;37545;45.302;-122.946;2023-07-31T04:54:18;101249.22;;;23.59;39.55
51468;BME280;37545;45.302;-122.946;2023-07-31T04:56:47;101240.66;;;23.43;39.89
51468;BME280;37545;45.302;-122.946;2023-07-31T04:59:15;101255.72;;;23.36;39.70
51468;BME280;37545;45.302;-122.946;2023-07-31T05:01:46;101255.88;;;23.29;40.07
51468;BME280;37545;45.302;-122.946;2023-07-31T05:04:14;101235.81;;;23.15;40.01
51468;BME280;37545;45.302;-122.946;2023-07-31T05:06:43;101250.78;;;23.16;40.40
51468;BME280;37545;45.302;-122.946;2023-07-31T05:09:12;101248.22;;;23.10;40.29
51468;BME280;37545;45.302;-122.946;2023-07-31T05:11:40;101258.03;;;23.02;40.48
51468;BME280;37545;45.302;-122.946;2023-07-31T05:14:09;101245.88;;;22.87;41.03
51468;BME280;37545;45.302;-122.946;2023-07-31T05:16:38;101256.44;;;22.86;40.88
51468;BME280;37545;45.302;-122.946;2023-07-31T05:19:08;101259.13;;;22.81;41.05
51468;BME280;37545;45.302;-122.946;2023-07-31T05:21:37;101263.56;;;22.79;41.41
51468;BME280;37545;45.302;-122.946;2023-07-31T05:24:05;101257.53;;;22.69;41.65
51468;BME280;37545;45.302;-122.946;2023-07-31T05:26:34;101262.91;;;22.63;41.54
51468;BME280;37545;45.302;-122.946;2023-07-31T05:29:02;101258.56;;;22.56;42.19
51468;BME280;37545;45.302;-122.946;2023-07-31T05:31:31;101265.72;;;22.46;41.98
51468;BME280;37545;45.302;-122.946;2023-07-31T05:34:00;101271.09;;;22.37;42.58
51468;BME280;37545;45.302;-122.946;2023-07-31T05:36:32;101272.06;;;22.31;42.30
51468;BME280;37545;45.302;-122.946;2023-07-31T05:39:01;101259.84;;;22.21;42.64
51468;BME280;37545;45.302;-122.946;2023-07-31T05:41:33;101271.31;;;22.15;42.85
51468;BME280;37545;45.302;-122.946;2023-07-31T05:44:02;101272.22;;;22.13;42.94
51468;BME280;37545;45.302;-122.946;2023-07-31T05:49:00;101260.00;;;22.03;43.86
51468;BME280;37545;45.302;-122.946;2023-07-31T05:51:29;101266.28;;;21.92;43.46
51468;BME280;37545;45.302;-122.946;2023-07-31T05:53:59;101261.09;;;21.82;44.31
51468;BME280;37545;45.302;-122.946;2023-07-31T05:56:27;101269.06;;;21.71;44.02
51468;BME280;37545;45.302;-122.946;2023-07-31T05:59:00;101263.88;;;21.65;44.31
51468;BME280;37545;45.302;-122.946;2023-07-31T06:01:29;101261.28;;;21.60;44.63
51468;BME280;37545;45.302;-122.946;2023-07-31T06:03:58;101257.81;;;21.52;44.75
51468;BME280;37545;45.302;-122.946;2023-07-31T06:06:26;101253.50;;;21.46;44.69
51468;BME280;37545;45.302;-122.946;2023-07-31T06:08:55;101258.78;;;21.42;45.08
51468;BME280;37545;45.302;-122.946;2023-07-31T06:11:25;101258.75;;;21.37;45.67
51468;BME280;37545;45.302;-122.946;2023-07-31T06:13:53;101258.81;;;21.31;45.63
51468;BME280;37545;45.302;-122.946;2023-07-31T06:16:22;101255.34;;;21.23;45.54
51468;BME280;37545;45.302;-122.946;2023-07-31T06:18:53;101261.53;;;21.16;44.91
51468;BME280;37545;45.302;-122.946;2023-07-31T06:21:27;101261.59;;;21.08;45.46
51468;BME280;37545;45.302;-122.946;2023-07-31T06:23:56;101276.53;;;21.01;45.85
51468;BME280;37545;45.302;-122.946;2023-07-31T06:26:26;101257.28;;;20.95;45.64
51468;BME280;37545;45.302;-122.946;2023-07-31T06:28:54;101255.56;;;20.87;45.58
51468;BME280;37545;45.302;-122.946;2023-07-31T06:31:23;101260.88;;;20.83;45.49
51468;BME280;37545;45.302;-122.946;2023-07-31T06:33:52;101268.75;;;20.81;45.90
51468;BME280;37545;45.302;-122.946;2023-07-31T06:36:21;101267.00;;;20.77;45.39
51468;BME280;37545;45.302;-122.946;2023-07-31T06:38:49;101258.28;;;20.72;45.87
51468;BME280;37545;45.302;-122.946;2023-07-31T06:41:20;101257.41;;;20.65;45.90
51468;BME280;37545;45.302;-122.946;2023-07-31T06:43:51;101260.94;;;20.61;46.37
51468;BME280;37545;45.302;-122.946;2023-07-31T06:46:19;101266.19;;;20.55;46.87
51468;BME280;37545;45.302;-122.946;2023-07-31T06:48:47;101265.34;;;20.48;46.22
51468;BME280;37545;45.302;-122.946;2023-07-31T06:51:16;101274.97;;;20.45;46.38
51468;BME280;37545;45.302;-122.946;2023-07-31T06:53:45;101274.13;;;20.41;46.52
51468;BME280;37545;45.302;-122.946;2023-07-31T06:56:16;101272.38;;;20.37;46.54
51468;BME280;37545;45.302;-122.946;2023-07-31T06:58:45;101268.00;;;20.35;46.11
51468;BME280;37545;45.302;-122.946;2023-07-31T07:01:15;101272.41;;;20.34;46.24
51468;BME280;37545;45.302;-122.946;2023-07-31T07:03:44;101275.91;;;20.33;46.08
51468;BME280;37545;45.302;-122.946;2023-07-31T07:06:15;101288.16;;;20.31;46.79
51468;BME280;37545;45.302;-122.946;2023-07-31T07:08:44;101287.31;;;20.27;45.68
51468;BME280;37545;45.302;-122.946;2023-07-31T07:11:12;101284.69;;;20.26;46.38
51468;BME280;37545;45.302;-122.946;2023-07-31T07:13:41;101287.31;;;20.21;46.50
51468;BME280;37545;45.302;-122.946;2023-07-31T07:16:09;101290.81;;;20.17;46.78
51468;BME280;37545;45.302;-122.946;2023-07-31T07:18:40;101282.94;;;20.14;46.16
51468;BME280;37545;45.302;-122.946;2023-07-31T07:21:08;101282.94;;;20.11;46.62
51468;BME280;37545;45.302;-122.946;2023-07-31T07:23:40;101286.47;;;20.07;46.23
51468;BME280;37545;45.302;-122.946;2023-07-31T07:26:08;101294.31;;;20.04;46.60
51468;BME280;37545;45.302;-122.946;2023-07-31T07:28:37;101289.97;;;20.04;46.03
51468;BME280;37545;45.302;-122.946;2023-07-31T07:31:05;101292.59;;;20.03;47.10
51468;BME280;37545;45.302;-122.946;2023-07-31T07:33:34;101286.47;;;20.01;46.31
51468;BME280;37545;45.302;-122.946;2023-07-31T07:36:04;101292.59;;;19.97;46.59
51468;BME280;37545;45.302;-122.946;2023-07-31T07:38:36;101294.34;;;19.95;46.86
51468;BME280;37545;45.302;-122.946;2023-07-31T07:41:05;101294.34;;;19.90;47.10
51468;BME280;37545;45.302;-122.946;2023-07-31T07:43:34;101290.84;;;19.83;46.97
51468;BME280;37545;45.302;-122.946;2023-07-31T07:46:02;101296.09;;;19.80;46.68
51468;BME280;37545;45.302;-122.946;2023-07-31T07:48:31;101301.34;;;19.80;46.89
51468;BME280;37545;45.302;-122.946;2023-07-31T07:51:06;101291.75;;;19.79;47.30
51468;BME280;37545;45.302;-122.946;2023-07-31T07:53:35;101297.84;;;19.77;47.23
51468;BME280;37545;45.302;-122.946;2023-07-31T07:56:03;101307.47;;;19.73;47.77
51468;BME280;37545;45.302;-122.946;2023-07-31T07:58:32;101298.69;;;19.68;47.71
51468;BME280;37545;45.302;-122.946;2023-07-31T08:01:01;101303.06;;;19.66;47.71
51468;BME280;37545;45.302;-122.946;2023-07-31T08:03:29;101296.03;;;19.56;48.38
51468;BME280;37545;45.302;-122.946;2023-07-31T08:05:58;101297.78;;;19.49;48.39
51468;BME280;37545;45.302;-122.946;2023-07-31T08:08:29;101304.81;;;19.42;48.70
51468;BME280;37545;45.302;-122.946;2023-07-31T08:10:57;101300.38;;;19.35;49.32
51468;BME280;37545;45.302;-122.946;2023-07-31T08:13:26;101302.13;;;19.30;49.24
51468;BME280;37545;45.302;-122.946;2023-07-31T08:15:54;101305.59;;;19.26;48.98
51468;BME280;37545;45.302;-122.946;2023-07-31T08:18:23;101304.75;;;19.22;49.22
51468;BME280;37545;45.302;-122.946;2023-07-31T08:20:51;101297.72;;;19.18;49.51
51468;BME280;37545;45.302;-122.946;2023-07-31T08:23:20;101306.47;;;19.13;49.89
51468;BME280;37545;45.302;-122.946;2023-07-31T08:25:56;101307.31;;;19.04;49.59
51468;BME280;37545;45.302;-122.946;2023-07-31T08:28:25;101301.16;;;19.00;50.02
51468;BME280;37545;45.302;-122.946;2023-07-31T08:30:54;101309.06;;;19.02;49.62
51468;BME280;37545;45.302;-122.946;2023-07-31T08:33:22;101311.66;;;19.00;49.84
51468;BME280;37545;45.302;-122.946;2023-07-31T08:35:53;101305.53;;;18.95;49.82
51468;BME280;37545;45.302;-122.946;2023-07-31T08:38:22;101308.16;;;18.92;49.98
51468;BME280;37545;45.302;-122.946;2023-07-31T08:40:53;101309.00;;;18.90;50.16
51468;BME280;37545;45.302;-122.946;2023-07-31T08:43:24;101311.63;;;18.88;50.47
51468;BME280;37545;45.302;-122.946;2023-07-31T08:45:54;101313.34;;;18.86;50.57
51468;BME280;37545;45.302;-122.946;2023-07-31T08:48:25;101315.94;;;18.80;51.62
51468;BME280;37545;45.302;-122.946;2023-07-31T08:50:54;101316.75;;;18.76;51.13
51468;BME280;37545;45.302;-122.946;2023-07-31T08:53:22;101319.34;;;18.71;51.96
51468;BME280;37545;45.302;-122.946;2023-07-31T08:55:54;101303.59;;;18.63;51.94
51468;BME280;37545;45.302;-122.946;2023-07-31T08:58:25;101313.19;;;18.61;52.20
51468;BME280;37545;45.302;-122.946;2023-07-31T09:00:56;101315.78;;;18.57;51.98
51468;BME280;37545;45.302;-122.946;2023-07-31T09:03:25;101311.41;;;18.54;51.62
51468;BME280;37545;45.302;-122.946;2023-07-31T09:05:55;101317.53;;;18.55;52.11
51468;BME280;37545;45.302;-122.946;2023-07-31T09:08:30;101314.03;;;18.51;52.87
51468;BME280;37545;45.302;-122.946;2023-07-31T09:11:02;101314.00;;;18.48;52.72
51468;BME280;37545;45.302;-122.946;2023-07-31T09:13:31;101321.84;;;18.42;52.65
51468;BME280;37545;45.302;-122.946;2023-07-31T09:16:00;101319.19;;;18.40;53.61
51468;BME280;37545;45.302;-122.946;2023-07-31T09:18:29;101318.28;;;18.34;53.84
51468;BME280;37545;45.302;-122.946;2023-07-31T09:21:04;101328.75;;;18.31;53.68
51468;BME280;37545;45.302;-122.946;2023-07-31T09:23:45;101324.34;;;18.27;54.42
51468;BME280;37545;45.302;-122.946;2023-07-31T09:26:32;101324.31;;;18.22;54.19
51468;BME280;37545;45.302;-122.946;2023-07-31T09:29:04;101319.06;;;18.20;54.39
51468;BME280;37545;45.302;-122.946;2023-07-31T09:31:43;101314.63;;;18.10;55.10
51468;BME280;37545;45.302;-122.946;2023-07-31T09:34:12;101319.00;;;18.10;55.17
51468;BME280;37545;45.302;-122.946;2023-07-31T09:36:42;101321.59;;;18.08;55.03
51468;BME280;37545;45.302;-122.946;2023-07-31T09:39:11;101318.09;;;18.06;55.35
51468;BME280;37545;45.302;-122.946;2023-07-31T09:41:43;101321.59;;;18.05;54.88
51468;BME280;37545;45.302;-122.946;2023-07-31T09:44:12;101320.69;;;18.05;54.82
51468;BME280;37545;45.302;-122.946;2023-07-31T09:46:41;101325.94;;;18.03;55.52
51468;BME280;37545;45.302;-122.946;2023-07-31T09:49:10;101313.72;;;18.04;55.30
51468;BME280;37545;45.302;-122.946;2023-07-31T09:51:40;101316.34;;;18.05;55.00
51468;BME280;37545;45.302;-122.946;2023-07-31T09:54:12;101307.59;;;18.05;55.32
51468;BME280;37545;45.302;-122.946;2023-07-31T09:56:44;101312.84;;;18.03;55.03
51468;BME280;37545;45.302;-122.946;2023-07-31T09:59:14;101318.03;;;18.00;55.62
51468;BME280;37545;45.302;-122.946;2023-07-31T10:01:43;101311.06;;;17.99;54.94
51468;BME280;37545;45.302;-122.946;2023-07-31T10:04:13;101314.53;;;17.98;55.35
51468;BME280;37545;45.302;-122.946;2023-07-31T10:06:44;101314.50;;;17.92;54.80
51468;BME280;37545;45.302;-122.946;2023-07-31T10:09:16;101316.25;;;17.91;55.64
51468;BME280;37545;45.302;-122.946;2023-07-31T10:11:55;101319.69;;;17.89;55.49
51468;BME280;37545;45.302;-122.946;2023-07-31T10:14:24;101319.66;;;17.86;55.46
51468;BME280;37545;45.302;-122.946;2023-07-31T10:16:54;101313.56;;;17.85;55.89
51468;BME280;37545;45.302;-122.946;2023-07-31T10:19:23;101320.53;;;17.85;56.25
51468;BME280;37545;45.302;-122.946;2023-07-31T10:21:52;101316.16;;;17.82;56.01
51468;BME280;37545;45.302;-122.946;2023-07-31T10:24:24;101330.13;;;17.83;56.43
51468;BME280;37545;45.302;-122.946;2023-07-31T10:26:58;101316.97;;;17.78;56.28
51468;BME280;37545;45.302;-122.946;2023-07-31T10:29:28;101326.56;;;17.77;56.54
51468;BME280;37545;45.302;-122.946;2023-07-31T10:31:58;101322.16;;;17.76;56.18
51468;BME280;37545;45.302;-122.946;2023-07-31T10:34:27;101322.16;;;17.75;56.43
51468;BME280;37545;45.302;-122.946;2023-07-31T10:37:20;101326.50;;;17.73;57.05
51468;BME280;37545;45.302;-122.946;2023-07-31T10:39:57;101329.09;;;17.70;57.05
51468;BME280;37545;45.302;-122.946;2023-07-31T10:42:31;101332.53;;;17.66;56.85
51468;BME280;37545;45.302;-122.946;2023-07-31T10:45:03;101331.63;;;17.61;57.46
51468;BME280;37545;45.302;-122.946;2023-07-31T10:47:36;101331.59;;;17.57;57.16
51468;BME280;37545;45.302;-122.946;2023-07-31T10:50:16;101328.94;;;17.53;57.91
51468;BME280;37545;45.302;-122.946;2023-07-31T10:52:52;101334.09;;;17.47;57.54
51468;BME280;37545;45.302;-122.946;2023-07-31T10:55:29;101326.19;;;17.41;57.91
51468;BME280;37545;45.302;-122.946;2023-07-31T10:58:06;101328.78;;;17.37;58.13
51468;BME280;37545;45.302;-122.946;2023-07-31T11:00:37;101335.69;;;17.34;58.41
51468;BME280;37545;45.302;-122.946;2023-07-31T11:03:07;101327.78;;;17.26;58.79
51468;BME280;37545;45.302;-122.946;2023-07-31T11:05:47;101332.91;;;17.20;58.76
51468;BME280;37545;45.302;-122.946;2023-07-31T11:08:18;101330.25;;;17.14;58.81
51468;BME280;37545;45.302;-122.946;2023-07-31T11:10:49;101335.44;;;17.11;59.85
51468;BME280;37545;45.302;-122.946;2023-07-31T11:13:20;101325.84;;;17.10;59.54
51468;BME280;37545;45.302;-122.946;2023-07-31T11:15:51;101328.38;;;17.04;60.33
51468;BME280;37545;45.302;-122.946;2023-07-31T11:18:20;101330.03;;;16.97;60.88
51468;BME280;37545;45.302;-122.946;2023-07-31T11:20:49;101339.50;;;16.87;62.34
51468;BME280;37545;45.302;-122.946;2023-07-31T11:23:18;101338.47;;;16.78;62.78
51468;BME280;37545;45.302;-122.946;2023-07-31T11:25:46;101342.72;;;16.69;63.05
51468;BME280;37545;45.302;-122.946;2023-07-31T11:28:16;101328.66;;;16.60;64.18
51468;BME280;37545;45.302;-122.946;2023-07-31T11:30:47;101339.91;;;16.54;63.71
51468;BME280;37545;45.302;-122.946;2023-07-31T11:33:15;101345.94;;;16.51;64.03
51468;BME280;37545;45.302;-122.946;2023-07-31T11:35:45;101354.56;;;16.46;64.76
51468;BME280;37545;45.302;-122.946;2023-07-31T11:38:22;101352.81;;;16.43;65.55
51468;BME280;37545;45.302;-122.946;2023-07-31T11:40:51;101345.72;;;16.36;64.66
51468;BME280;37545;45.302;-122.946;2023-07-31T11:43:21;101350.13;;;16.39;64.74
51468;BME280;37545;45.302;-122.946;2023-07-31T11:45:53;101345.72;;;16.38;64.72
51468;BME280;37545;45.302;-122.946;2023-07-31T11:48:22;101352.66;;;16.34;65.21
51468;BME280;37545;45.302;-122.946;2023-07-31T11:50:53;101351.72;;;16.29;65.16
51468;BME280;37545;45.302;-122.946;2023-07-31T11:53:26;101361.19;;;16.24;65.13
51468;BME280;37545;45.302;-122.946;2023-07-31T11:55:58;101362.03;;;16.21;65.16
51468;BME280;37545;45.302;-122.946;2023-07-31T11:58:36;101366.34;;;16.18;65.34
51468;BME280;37545;45.302;-122.946;2023-07-31T12:01:08;101374.94;;;16.10;65.72
51468;BME280;37545;45.302;-122.946;2023-07-31T12:03:37;101365.28;;;16.06;65.51
51468;BME280;37545;45.302;-122.946;2023-07-31T12:06:07;101370.44;;;16.03;65.76
51468;BME280;37545;45.302;-122.946;2023-07-31T12:08:42;101364.19;;;15.92;66.71
51468;BME280;37545;45.302;-122.946;2023-07-31T12:11:11;101366.69;;;15.87;66.20
51468;BME280;37545;45.302;-122.946;2023-07-31T12:13:39;101375.41;;;15.89;66.66
51468;BME280;37545;45.302;-122.946;2023-07-31T12:16:12;101371.03;;;15.87;66.81
51468;BME280;37545;45.302;-122.946;2023-07-31T12:18:41;101372.69;;;15.82;66.82
51468;BME280;37545;45.302;-122.946;2023-07-31T12:21:10;101380.50;;;15.82;66.81
51468;BME280;37545;45.302;-122.946;2023-07-31T12:23:39;101372.56;;;15.76;67.94
51468;BME280;37545;45.302;-122.946;2023-07-31T12:26:10;101376.81;;;15.70;67.54
51468;BME280;37545;45.302;-122.946;2023-07-31T12:28:41;101367.09;;;15.63;67.43
51468;BME280;37545;45.302;-122.946;2023-07-31T12:31:12;101371.28;;;15.55;68.51
51468;BME280;37545;45.302;-122.946;2023-07-31T12:33:41;101369.50;;;15.53;67.71
51468;BME280;37545;45.302;-122.946;2023-07-31T12:36:11;101372.97;;;15.52;68.34
51468;BME280;37545;45.302;-122.946;2023-07-31T12:38:41;101372.91;;;15.48;68.93